Date,TemperatureHighF,TemperatureAvgF,TemperatureLowF,DewpointHighF,DewpointAvgF,DewpointLowF,HumidityHigh,HumidityAvg,HumidityLow,PressureMaxIn,PressureMinIn,WindSpeedMaxMPH,WindSpeedAvgMPH,GustSpeedMaxMPH,PrecipitationSumIn
2013-1-1,47.5,42.6,37.9,46.2,39.5,35.2,98,89,77,29.98,29.48,21,4,21,0.02
2013-1-2,50.6,49.5,46.3,50.3,49.2,45.5,100,99,97,30.21,29.94,23,10,23,0.05
2013-1-3,50.9,50.1,49.2,50.5,49.7,49.0,100,98,95,30.43,30.21,21,10,24,0.08
2013-1-4,51.3,49.9,48.3,49.7,48.1,46.8,97,93,91,30.43,30.28,16,6,17,0.00
2013-1-5,52.7,49.6,46.2,51.3,48.2,45.7,99,95,91,30.33,30.18,20,6,21,0.10
2013-1-6,51.3,50.1,46.8,50.4,49.3,46.3,99,97,94,30.31,30.03,16,6,19,0.48
2013-1-7,53.1,51.5,50.1,52.3,50.7,49.1,98,97,96,30.03,29.82,17,6,20,0.69
2013-1-8,53.6,46.6,36.7,52.5,44.7,35.9,99,93,79,30.18,29.81,25,4,28,0.02
2013-1-9,42.6,39.4,35.3,41.9,38.7,34.6,99,98,94,30.15,29.91,11,2,0,0.01
2013-1-10,48.5,42.4,37.0,45.4,39.5,34.7,97,90,78,29.93,29.75,26,5,26,0.02
2013-1-11,49.1,44.2,38.9,46.6,42.4,37.6,98,94,89,29.93,29.60,18,4,18,0.02
2013-1-12,45.0,41.9,36.6,42.8,39.6,34.8,97,91,84,30.01,29.59,14,3,18,0.01
2013-1-13,47.3,39.6,30.5,45.0,37.9,29.8,99,94,85,30.09,30.01,10,2,0,0.02
2013-1-14,46.2,42.5,36.3,44.4,39.6,33.8,96,89,83,30.04,29.90,15,4,19,0.06
2013-1-15,43.3,38.8,35.0,41.1,36.8,32.9,96,92,88,29.92,29.58,10,2,0,0.18
2013-1-16,45.6,42.3,38.4,45.1,41.7,37.4,99,97,95,29.76,29.58,9,2,0,0.08
2013-1-17,48.6,45.2,42.8,47.4,44.0,42.3,99,96,91,29.76,29.21,22,5,23,0.25
2013-1-18,48.1,44.3,40.3,46.8,42.9,38.6,98,95,85,29.22,29.11,17,4,19,0.49
2013-1-19,42.5,37.7,33.1,40.1,36.2,32.2,99,94,90,29.48,29.17,10,1,0,0.00
2013-1-20,37.9,34.9,31.4,33.5,31.6,30.3,96,88,75,29.46,29.24,13,4,21,0.01
2013-1-21,40.2,35.7,29.9,35.3,32.9,29.1,98,89,80,29.30,29.24,9,1,12,0.00
2013-1-22,37.9,32.1,27.0,37.2,31.2,26.4,99,97,92,29.62,29.27,9,2,0,0.06
2013-1-23,40.1,36.4,32.5,36.8,34.2,31.3,96,92,86,29.76,29.55,16,2,16,0.02
2013-1-24,43.5,36.7,29.1,41.6,35.2,28.3,98,94,91,29.85,29.72,19,4,20,0.01
2013-1-25,48.6,44.8,40.3,48.3,42.9,36.8,99,93,82,29.72,29.27,23,6,25,0.31
2013-1-26,52.4,44.6,38.0,51.6,43.2,35.8,99,95,87,29.61,28.89,28,7,36,0.17
2013-1-27,45.5,41.4,38.0,45.1,14.0,-99.9,99,85,38,29.36,28.86,33,12,43,0.06
2013-1-28,51.4,46.3,40.6,47.8,14.5,-99.9,98,86,77,29.42,28.93,41,17,48,0.03
2013-1-29,55.0,48.2,43.5,53.2,-4.8,-99.9,96,90,82,29.31,28.98,38,11,50,0.07
2013-1-30,48.4,45.7,41.3,44.3,17.5,-99.9,94,85,38,29.70,29.23,42,12,48,0.02
2013-1-31,50.0,46.7,44.1,43.9,14.2,-99.9,86,79,75,29.66,29.36,45,15,47,0.00